createdAt,value
2022-12-27T00:00:00.542Z,5.29
2022-12-27T00:02:27.451Z,5.28
2022-12-27T00:04:54.378Z,5.24
2022-12-27T00:07:21.142Z,5.15
2022-12-27T00:09:48.486Z,5.10
2022-12-27T00:12:15.307Z,5.04
2022-12-27T00:14:42.067Z,4.95
2022-12-27T00:17:08.785Z,4.87
2022-12-27T00:19:36.180Z,4.75
2022-12-27T00:22:02.987Z,4.67
2022-12-27T00:24:29.808Z,4.55
2022-12-27T00:26:56.521Z,4.49
2022-12-27T00:29:24.500Z,4.43
2022-12-27T00:31:51.312Z,4.34
2022-12-27T00:34:18.301Z,4.31
2022-12-27T00:36:45.163Z,4.21
2022-12-27T00:39:12.124Z,4.13
2022-12-27T00:41:39.552Z,4.01
2022-12-27T00:44:06.376Z,3.98
2022-12-27T00:46:33.212Z,3.89
2022-12-27T00:49:01.735Z,3.79
2022-12-27T00:51:28.906Z,3.69
2022-12-27T00:53:56.591Z,3.60
2022-12-27T00:56:26.279Z,3.51
2022-12-27T00:58:58.310Z,3.44
2022-12-27T01:01:27.025Z,3.42
2022-12-27T01:03:54.308Z,3.32
2022-12-27T01:06:24.028Z,3.30
2022-12-27T01:08:50.933Z,3.26
2022-12-27T01:11:18.815Z,3.24
2022-12-27T01:13:45.859Z,3.18
2022-12-27T01:16:15.608Z,3.07
2022-12-27T01:18:42.784Z,3.11
2022-12-27T01:21:11.899Z,3.09
2022-12-27T01:23:39.365Z,3.08
2022-12-27T01:26:08.645Z,3.06
2022-12-27T01:28:36.055Z,3.04
2022-12-27T01:31:11.237Z,3.01
2022-12-27T01:33:38.167Z,2.99
2022-12-27T01:36:09.381Z,2.99
2022-12-27T01:38:36.188Z,2.96
2022-12-27T01:41:23.096Z,2.94
2022-12-27T01:43:50.065Z,2.93
2022-12-27T01:46:17.850Z,2.83
2022-12-27T01:48:45.105Z,2.84
2022-12-27T01:51:12.531Z,2.80
2022-12-27T01:53:46.171Z,2.75
2022-12-27T01:56:20.028Z,2.67
2022-12-27T01:58:56.451Z,2.61
2022-12-27T02:01:31.048Z,2.57
2022-12-27T02:04:02.155Z,2.55
2022-12-27T02:06:31.429Z,2.58
2022-12-27T02:09:07.059Z,2.58
2022-12-27T02:11:52.102Z,2.59
2022-12-27T02:14:36.156Z,2.52
2022-12-27T02:17:06.582Z,2.46
2022-12-27T02:19:42.426Z,2.43
2022-12-27T02:22:29.386Z,2.38
2022-12-27T02:25:33.227Z,2.32
2022-12-27T02:28:19.012Z,2.39
2022-12-27T02:30:49.620Z,2.42
2022-12-27T02:33:22.147Z,2.39
2022-12-27T02:35:58.432Z,2.39
2022-12-27T02:38:31.435Z,2.36
2022-12-27T02:41:21.219Z,2.34
2022-12-27T02:44:06.821Z,2.29
2022-12-27T02:46:52.194Z,2.28
2022-12-27T02:49:43.763Z,2.25
2022-12-27T02:52:55.293Z,2.21
2022-12-27T02:55:32.991Z,2.20
2022-12-27T02:58:20.342Z,2.19
2022-12-27T03:01:25.738Z,2.19
2022-12-27T03:04:08.977Z,2.10
2022-12-27T03:06:57.511Z,2.08
2022-12-27T03:10:08.334Z,2.05
2022-12-27T03:13:03.884Z,2.05
2022-12-27T03:15:55.827Z,2.02
2022-12-27T03:18:41.701Z,2.00
2022-12-27T03:21:27.745Z,1.98
2022-12-27T03:24:16.929Z,1.97
2022-12-27T03:26:47.803Z,1.95
2022-12-27T03:29:38.391Z,1.93
2022-12-27T03:32:29.044Z,1.90
2022-12-27T03:35:05.872Z,1.89
2022-12-27T03:37:56.965Z,1.91
2022-12-27T03:40:39.051Z,1.89
2022-12-27T03:43:15.551Z,1.89
2022-12-27T03:46:13.788Z,1.88
2022-12-27T03:48:53.953Z,1.83
2022-12-27T03:51:23.757Z,1.80
2022-12-27T03:53:57.409Z,1.78
2022-12-27T03:56:24.632Z,1.74
2022-12-27T03:58:52.003Z,1.72
2022-12-27T04:01:18.954Z,1.70
2022-12-27T04:03:45.725Z,1.69
2022-12-27T04:06:14.199Z,1.66
2022-12-27T04:08:59.459Z,1.67
2022-12-27T04:11:45.048Z,1.66
2022-12-27T04:14:30.563Z,1.63
2022-12-27T04:17:15.739Z,1.57
2022-12-27T04:20:01.159Z,1.59
2022-12-27T04:22:46.361Z,1.59
2022-12-27T04:25:31.855Z,1.55
2022-12-27T04:28:17.494Z,1.57
2022-12-27T04:31:03.010Z,1.56
2022-12-27T04:33:48.261Z,1.57
2022-12-27T04:36:15.014Z,1.59
2022-12-27T04:38:41.745Z,1.56
2022-12-27T04:41:27.170Z,1.56
2022-12-27T04:44:12.376Z,1.57
2022-12-27T04:46:58.265Z,1.62
2022-12-27T04:49:45.198Z,1.66
2022-12-27T04:52:36.680Z,1.67
2022-12-27T04:55:21.238Z,1.68
2022-12-27T04:57:48.301Z,1.65
2022-12-27T05:00:35.468Z,1.66
2022-12-27T05:03:05.328Z,1.65
2022-12-27T05:05:33.079Z,1.67
2022-12-27T05:08:18.967Z,1.65
2022-12-27T05:11:04.528Z,1.62
2022-12-27T05:13:50.032Z,1.62
2022-12-27T05:16:16.813Z,1.63
2022-12-27T05:18:43.931Z,1.63
2022-12-27T05:21:10.729Z,1.63
2022-12-27T05:24:01.694Z,1.65
2022-12-27T05:26:31.968Z,1.62
2022-12-27T05:29:00.079Z,1.63
2022-12-27T05:31:28.279Z,1.64
2022-12-27T05:33:55.442Z,1.64
2022-12-27T05:36:22.552Z,1.65
2022-12-27T05:38:49.640Z,1.65
2022-12-27T05:41:16.541Z,1.63
2022-12-27T05:43:43.700Z,1.65
2022-12-27T05:46:16.611Z,1.66
2022-12-27T05:48:44.126Z,1.63
2022-12-27T05:51:15.067Z,1.61
2022-12-27T05:53:42.135Z,1.60
2022-12-27T05:56:12.197Z,1.59
2022-12-27T05:58:39.356Z,1.58
2022-12-27T06:01:09.865Z,1.58
2022-12-27T06:03:37.500Z,1.57
2022-12-27T06:06:07.908Z,1.55
2022-12-27T06:08:35.608Z,1.57
2022-12-27T06:11:14.405Z,1.59
2022-12-27T06:13:42.782Z,1.62
2022-12-27T06:16:12.447Z,1.62
2022-12-27T06:18:41.147Z,1.64
2022-12-27T06:21:10.769Z,1.67
2022-12-27T06:23:39.387Z,1.73
2022-12-27T06:26:07.117Z,1.78
2022-12-27T06:28:34.338Z,1.81
2022-12-27T06:31:02.148Z,1.87
2022-12-27T06:33:29.734Z,1.95
2022-12-27T06:35:56.869Z,1.97
2022-12-27T06:38:23.858Z,2.02
2022-12-27T06:40:50.608Z,2.06
2022-12-27T06:43:17.343Z,2.10
2022-12-27T06:45:44.189Z,2.16
2022-12-27T06:48:10.955Z,2.18
2022-12-27T06:50:37.716Z,2.23
2022-12-27T06:53:04.461Z,2.27
2022-12-27T06:55:31.233Z,2.28
2022-12-27T06:57:58.031Z,2.29
2022-12-27T07:00:24.813Z,2.32
2022-12-27T07:02:51.707Z,2.35
2022-12-27T07:05:18.586Z,2.36
2022-12-27T07:07:45.319Z,2.42
2022-12-27T07:10:12.165Z,2.43
2022-12-27T07:12:38.960Z,2.43
2022-12-27T07:15:06.919Z,2.47
2022-12-27T07:17:37.110Z,2.47
2022-12-27T07:20:04.974Z,2.49
2022-12-27T07:22:31.793Z,2.51
2022-12-27T07:24:58.664Z,2.55
2022-12-27T07:27:25.487Z,2.57
2022-12-27T07:29:52.313Z,2.58
2022-12-27T07:32:19.117Z,2.60
2022-12-27T07:34:45.850Z,2.63
2022-12-27T07:37:12.628Z,2.61
2022-12-27T07:39:39.399Z,2.66
2022-12-27T07:42:08.387Z,2.67
2022-12-27T07:44:37.965Z,2.68
2022-12-27T07:47:05.296Z,2.68
2022-12-27T07:49:32.110Z,2.73
2022-12-27T07:51:59.192Z,2.77
2022-12-27T07:54:26.022Z,2.79
2022-12-27T07:56:52.764Z,2.78
2022-12-27T07:59:19.627Z,2.77
2022-12-27T08:02:04.907Z,2.81
2022-12-27T08:04:33.995Z,2.81
2022-12-27T08:07:08.475Z,2.82
2022-12-27T08:09:38.925Z,2.81
2022-12-27T08:12:06.611Z,2.83
2022-12-27T08:14:33.396Z,2.84
2022-12-27T08:17:05.808Z,2.86
2022-12-27T08:19:32.615Z,2.87
2022-12-27T08:21:59.358Z,2.90
2022-12-27T08:24:26.123Z,2.94
2022-12-27T08:26:52.885Z,2.96
2022-12-27T08:29:19.628Z,2.96
2022-12-27T08:31:46.372Z,3.00
2022-12-27T08:34:13.387Z,3.01
2022-12-27T08:36:56.535Z,3.05
2022-12-27T08:39:24.563Z,3.07
2022-12-27T08:41:54.199Z,3.08
2022-12-27T08:44:21.901Z,3.15
2022-12-27T08:46:48.657Z,3.17
2022-12-27T08:49:15.516Z,3.23
2022-12-27T08:51:42.264Z,3.24
2022-12-27T08:54:09.508Z,3.24
2022-12-27T08:56:36.976Z,3.29
2022-12-27T08:59:04.374Z,3.30
2022-12-27T09:01:31.264Z,3.34
2022-12-27T09:03:58.174Z,3.35
2022-12-27T09:06:25.944Z,3.37
2022-12-27T09:08:54.802Z,3.40
2022-12-27T09:11:24.545Z,3.40
2022-12-27T09:13:51.568Z,3.42
2022-12-27T09:16:20.855Z,3.45
2022-12-27T09:18:50.455Z,3.45
2022-12-27T09:21:18.670Z,3.49
2022-12-27T09:23:46.345Z,3.48
2022-12-27T09:26:17.417Z,3.47
2022-12-27T09:28:44.751Z,3.47
2022-12-27T09:31:13.238Z,3.49
2022-12-27T09:33:40.464Z,3.49
2022-12-27T09:36:13.567Z,3.52
2022-12-27T09:38:41.373Z,3.59
2022-12-27T09:42:45.842Z,3.63
2022-12-27T09:44:45.055Z,3.67
2022-12-27T09:47:28.908Z,3.73
2022-12-27T09:50:01.958Z,3.74
2022-12-27T09:52:47.763Z,3.78
2022-12-27T09:55:19.742Z,3.81
2022-12-27T09:57:47.592Z,3.79
2022-12-27T10:00:34.295Z,3.84
2022-12-27T10:03:05.303Z,3.82
2022-12-27T10:05:35.107Z,3.85
2022-12-27T10:08:27.373Z,3.89
2022-12-27T10:11:33.392Z,3.89
2022-12-27T10:14:30.409Z,3.90
2022-12-27T10:17:07.242Z,3.93
2022-12-27T10:19:42.793Z,3.95
2022-12-27T10:22:23.504Z,3.95
2022-12-27T10:25:00.773Z,3.97
2022-12-27T10:27:29.775Z,3.98
2022-12-27T10:29:59.545Z,4.00
2022-12-27T10:32:26.892Z,4.03
2022-12-27T10:35:00.213Z,4.02
2022-12-27T10:37:27.464Z,4.09
2022-12-27T10:39:55.078Z,4.16
2022-12-27T10:42:34.523Z,4.16
2022-12-27T10:45:34.845Z,4.12
2022-12-27T10:48:16.581Z,4.11
2022-12-27T10:50:47.598Z,4.13
2022-12-27T10:53:38.276Z,4.18
2022-12-27T10:56:12.216Z,4.22
2022-12-27T10:58:46.251Z,4.27
2022-12-27T11:01:30.486Z,4.35
2022-12-27T11:04:20.740Z,4.40
2022-12-27T11:07:02.234Z,4.41
2022-12-27T11:09:31.770Z,4.43
2022-12-27T11:12:25.432Z,4.46
2022-12-27T11:14:59.724Z,4.47
2022-12-27T11:17:37.473Z,4.51
2022-12-27T11:20:29.199Z,4.58
2022-12-27T11:23:11.692Z,4.64
2022-12-27T11:25:56.888Z,4.69
2022-12-27T11:28:38.951Z,4.74
2022-12-27T11:31:09.803Z,4.78
2022-12-27T11:33:41.227Z,4.79
2022-12-27T11:36:11.157Z,4.81
2022-12-27T11:38:39.890Z,4.84
2022-12-27T11:41:13.154Z,4.88
2022-12-27T11:43:58.070Z,4.92
2022-12-27T11:46:37.495Z,4.94
2022-12-27T11:49:09.957Z,4.97
2022-12-27T11:51:55.565Z,5.01
2022-12-27T11:54:29.968Z,5.03
2022-12-27T11:57:29.998Z,5.07
2022-12-27T12:00:18.468Z,5.05
2022-12-27T12:03:16.346Z,5.05
2022-12-27T12:05:52.305Z,5.03
2022-12-27T12:08:52.061Z,5.00
2022-12-27T12:11:38.904Z,5.03
2022-12-27T12:14:38.033Z,5.04
2022-12-27T12:17:22.679Z,5.05
2022-12-27T12:20:26.125Z,5.07
2022-12-27T12:23:21.473Z,5.02
2022-12-27T12:26:05.847Z,5.04
2022-12-27T12:28:59.788Z,5.03
2022-12-27T12:31:36.121Z,5.03
2022-12-27T12:34:21.161Z,4.97
2022-12-27T12:37:17.882Z,5.01
2022-12-27T12:40:08.104Z,5.05
2022-12-27T12:42:56.355Z,5.12
2022-12-27T12:45:37.066Z,5.13
2022-12-27T12:48:20.621Z,5.10
2022-12-27T12:51:25.144Z,5.11
2022-12-27T12:54:07.854Z,5.07
2022-12-27T12:56:57.914Z,5.07
2022-12-27T12:59:49.482Z,5.13
2022-12-27T13:02:28.265Z,5.16
2022-12-27T13:05:16.321Z,5.18
2022-12-27T13:08:20.590Z,5.23
2022-12-27T13:11:09.253Z,5.22
2022-12-27T13:14:05.700Z,5.27
2022-12-27T13:16:51.950Z,5.47
2022-12-27T13:19:38.396Z,5.87
2022-12-27T13:22:11.115Z,6.39
2022-12-27T13:25:04.406Z,6.75
2022-12-27T13:27:49.678Z,7.04
2022-12-27T13:30:34.282Z,7.38
2022-12-27T13:33:24.419Z,7.64
2022-12-27T13:36:17.546Z,7.61
2022-12-27T13:39:08.596Z,7.50
2022-12-27T13:41:47.678Z,7.51
2022-12-27T13:44:37.865Z,7.47
2022-12-27T13:47:32.390Z,7.26
2022-12-27T13:50:11.200Z,7.01
2022-12-27T13:53:00.169Z,6.78
2022-12-27T13:55:55.929Z,6.61
2022-12-27T13:59:04.089Z,6.45
2022-12-27T14:01:30.907Z,6.33
2022-12-27T14:04:20.715Z,6.28
2022-12-27T14:06:53.889Z,6.22
2022-12-27T14:09:39.544Z,6.16
2022-12-27T14:12:24.487Z,6.12
2022-12-27T14:14:53.900Z,6.07
2022-12-27T14:17:28.825Z,6.03
2022-12-27T14:20:13.679Z,5.99
2022-12-27T14:23:17.857Z,5.93
2022-12-27T14:26:24.877Z,5.91
2022-12-27T14:29:00.084Z,5.85
2022-12-27T14:32:09.075Z,5.84
2022-12-27T14:35:01.294Z,5.81
2022-12-27T14:37:36.913Z,5.81
2022-12-27T14:40:51.682Z,5.77
2022-12-27T14:43:49.320Z,5.72
2022-12-27T14:46:42.024Z,5.71
2022-12-27T14:49:33.001Z,5.67
2022-12-27T14:52:33.897Z,5.67
2022-12-27T14:55:23.089Z,5.67
2022-12-27T14:57:55.681Z,5.58
2022-12-27T15:00:26.210Z,5.55
2022-12-27T15:03:21.461Z,5.47
2022-12-27T15:06:04.319Z,5.44
2022-12-27T15:08:41.256Z,5.42
2022-12-27T15:11:17.354Z,5.41
2022-12-27T15:14:07.233Z,5.36
2022-12-27T15:16:49.313Z,5.33
2022-12-27T15:19:31.310Z,5.32
2022-12-27T15:22:25.618Z,5.26
2022-12-27T15:25:15.855Z,5.23
2022-12-27T15:28:02.554Z,5.17
2022-12-27T15:30:44.048Z,5.15
2022-12-27T15:33:21.653Z,5.12
2022-12-27T15:36:08.790Z,5.07
2022-12-27T15:38:35.467Z,5.01
2022-12-27T15:41:08.077Z,4.98
2022-12-27T15:43:53.639Z,4.94
2022-12-27T15:46:36.096Z,4.89
2022-12-27T15:49:11.684Z,4.86
2022-12-27T15:51:50.335Z,4.87
2022-12-27T15:54:37.528Z,4.87
2022-12-27T15:57:20.397Z,4.87
2022-12-27T15:59:52.920Z,4.88
2022-12-27T16:02:30.949Z,4.88
2022-12-27T16:05:00.854Z,4.86
2022-12-27T16:07:59.852Z,4.82
2022-12-27T16:10:32.536Z,4.82
2022-12-27T16:13:05.049Z,4.82
2022-12-27T16:15:39.145Z,4.80
2022-12-27T16:18:19.501Z,4.76
2022-12-27T16:21:20.094Z,4.77
2022-12-27T16:23:46.789Z,4.77
2022-12-27T16:26:21.906Z,4.77
2022-12-27T16:29:23.863Z,4.76
2022-12-27T16:31:51.352Z,4.76
2022-12-27T16:34:28.544Z,4.72
2022-12-27T16:36:58.575Z,4.71
2022-12-27T16:39:55.444Z,4.70
2022-12-27T16:42:33.983Z,4.69
2022-12-27T16:45:38.919Z,4.68
2022-12-27T16:48:16.955Z,4.66
2022-12-27T16:50:56.980Z,4.65
2022-12-27T16:53:55.872Z,4.64
2022-12-27T16:56:25.676Z,4.61
2022-12-27T16:58:52.633Z,4.61
2022-12-27T17:01:25.351Z,4.61
2022-12-27T17:03:53.938Z,4.61
2022-12-27T17:06:31.960Z,4.63
2022-12-27T17:09:08.746Z,4.62
2022-12-27T17:12:01.987Z,4.63
2022-12-27T17:14:34.088Z,4.63
2022-12-27T17:17:07.603Z,4.63
2022-12-27T17:19:42.172Z,4.64
2022-12-27T17:22:15.429Z,4.65
2022-12-27T17:24:47.816Z,4.65
2022-12-27T17:27:32.527Z,4.66
2022-12-27T17:30:50.233Z,4.66
2022-12-27T17:33:36.868Z,4.64
2022-12-27T17:36:22.450Z,4.62
2022-12-27T17:39:19.627Z,4.59
2022-12-27T17:42:26.449Z,4.58
2022-12-27T17:45:13.053Z,4.60
2022-12-27T17:48:09.731Z,4.62
2022-12-27T17:50:38.663Z,4.64
2022-12-27T17:53:41.104Z,4.66
2022-12-27T17:56:33.110Z,4.67
2022-12-27T17:59:08.284Z,4.67
2022-12-27T18:01:41.757Z,4.69
2022-12-27T18:04:16.954Z,4.71
2022-12-27T18:06:43.841Z,4.70
2022-12-27T18:09:29.812Z,4.71
2022-12-27T18:11:56.652Z,4.71
2022-12-27T18:14:23.456Z,4.74
2022-12-27T18:16:50.493Z,4.74
2022-12-27T18:19:19.915Z,4.74
2022-12-27T18:21:58.309Z,4.72
2022-12-27T18:24:33.636Z,4.71
2022-12-27T18:27:06.693Z,4.69
2022-12-27T18:29:34.402Z,4.67
2022-12-27T18:32:05.819Z,4.69
2022-12-27T18:34:42.057Z,4.67
2022-12-27T18:37:24.010Z,4.68
2022-12-27T18:40:01.085Z,4.69
2022-12-27T18:42:37.926Z,4.69
2022-12-27T18:45:08.573Z,4.70
2022-12-27T18:47:40.310Z,4.72
2022-12-27T18:50:17.722Z,4.74
2022-12-27T18:52:49.639Z,4.74
2022-12-27T18:55:26.945Z,4.73
2022-12-27T18:58:20.443Z,4.73
2022-12-27T19:01:00.549Z,4.74
2022-12-27T19:03:28.802Z,4.73
2022-12-27T19:05:59.774Z,4.73
2022-12-27T19:08:32.585Z,4.70
2022-12-27T19:10:59.604Z,4.68
2022-12-27T19:13:37.493Z,4.62
2022-12-27T19:16:05.561Z,4.60
2022-12-27T19:18:36.130Z,4.59
2022-12-27T19:21:05.728Z,4.54
2022-12-27T19:23:32.482Z,4.53
2022-12-27T19:26:01.073Z,4.51
2022-12-27T19:28:29.774Z,4.48
2022-12-27T19:31:17.766Z,4.46
2022-12-27T19:33:51.993Z,4.45
2022-12-27T19:36:38.240Z,4.40
2022-12-27T19:39:18.394Z,4.36
2022-12-27T19:41:46.728Z,4.31
2022-12-27T19:44:13.799Z,4.26
2022-12-27T19:46:40.694Z,4.24
2022-12-27T19:51:58.320Z,4.20
2022-12-27T19:54:25.447Z,4.19
2022-12-27T19:56:52.277Z,4.17
2022-12-27T19:59:22.112Z,4.17
2022-12-27T20:01:49.564Z,4.16
2022-12-27T20:04:18.166Z,4.14
2022-12-27T20:06:48.569Z,4.15
2022-12-27T20:09:17.876Z,4.16
2022-12-27T20:11:45.520Z,4.16
2022-12-27T20:14:14.736Z,4.18
2022-12-27T20:16:41.826Z,4.20
2022-12-27T20:19:12.231Z,4.25
2022-12-27T20:21:39.806Z,4.29
2022-12-27T20:24:07.242Z,4.32
2022-12-27T20:26:34.187Z,4.35
2022-12-27T20:29:01.134Z,4.37
2022-12-27T20:31:28.095Z,4.40
2022-12-27T20:33:56.437Z,4.42
2022-12-27T20:36:24.167Z,4.41
2022-12-27T20:38:51.128Z,4.38
2022-12-27T20:41:20.702Z,4.37
2022-12-27T20:43:47.736Z,4.36
2022-12-27T20:46:17.591Z,4.35
2022-12-27T20:48:46.269Z,4.35
2022-12-27T20:51:33.613Z,4.35
2022-12-27T20:54:03.754Z,4.37
2022-12-27T20:56:31.369Z,4.34
2022-12-27T20:58:58.846Z,4.36
2022-12-27T21:01:26.719Z,4.35
2022-12-27T21:03:56.158Z,4.36
2022-12-27T21:06:27.247Z,4.36
2022-12-27T21:08:57.164Z,4.38
2022-12-27T21:11:33.680Z,4.41
2022-12-27T21:14:04.955Z,4.38
2022-12-27T21:16:34.483Z,4.37
2022-12-27T21:19:05.204Z,4.41
2022-12-27T21:21:34.909Z,4.41
2022-12-27T21:24:03.082Z,4.43
2022-12-27T21:26:33.121Z,4.47
2022-12-27T21:29:01.267Z,4.50
2022-12-27T21:31:28.896Z,4.53
2022-12-27T21:33:56.124Z,4.57
2022-12-27T21:36:28.542Z,4.61
2022-12-27T21:38:56.276Z,4.61
2022-12-27T21:41:35.254Z,4.62
2022-12-27T21:44:03.249Z,4.66
2022-12-27T21:46:32.633Z,4.67
2022-12-27T21:49:12.564Z,4.68
2022-12-27T21:51:41.128Z,4.69
2022-12-27T21:54:08.257Z,4.69
2022-12-27T21:56:35.466Z,4.72
2022-12-27T21:59:05.603Z,4.71
2022-12-27T22:01:52.023Z,4.71
2022-12-27T22:04:22.532Z,4.69
2022-12-27T22:06:49.692Z,4.68
2022-12-27T22:09:19.557Z,4.61
2022-12-27T22:11:47.514Z,4.66
2022-12-27T22:14:14.694Z,4.65
2022-12-27T22:16:41.564Z,4.63
2022-12-27T22:19:10.231Z,4.60
2022-12-27T22:21:38.675Z,4.56
2022-12-27T22:24:06.495Z,4.54
2022-12-27T22:26:39.585Z,4.50
2022-12-27T22:29:07.963Z,4.46
2022-12-27T22:31:37.957Z,4.44
2022-12-27T22:34:06.023Z,4.39
2022-12-27T22:36:34.484Z,4.33
2022-12-27T22:39:02.162Z,4.27
2022-12-27T22:41:32.367Z,4.20
2022-12-27T22:44:04.705Z,4.13
2022-12-27T22:46:58.467Z,4.06
2022-12-27T22:49:19.264Z,3.99
2022-12-27T22:51:46.267Z,3.95
2022-12-27T22:54:13.207Z,3.89
2022-12-27T22:56:42.433Z,3.85
2022-12-27T22:59:10.761Z,3.82
2022-12-27T23:01:38.572Z,3.77
2022-12-27T23:04:07.920Z,3.68
2022-12-27T23:06:36.096Z,3.59
2022-12-27T23:09:04.671Z,3.53
2022-12-27T23:11:38.394Z,3.48
2022-12-27T23:14:09.637Z,3.42
2022-12-27T23:16:43.612Z,3.39
2022-12-27T23:19:11.142Z,3.35
2022-12-27T23:21:38.372Z,3.29
2022-12-27T23:24:06.191Z,3.27
2022-12-27T23:26:33.635Z,3.16
2022-12-27T23:29:00.683Z,3.10
2022-12-27T23:31:28.224Z,3.03
2022-12-27T23:33:55.457Z,3.00
2022-12-27T23:36:23.077Z,2.95
2022-12-27T23:38:51.309Z,2.94
2022-12-27T23:41:23.511Z,2.92
2022-12-27T23:43:53.703Z,2.91
2022-12-27T23:46:24.985Z,2.88
2022-12-27T23:48:52.589Z,2.83
2022-12-27T23:51:20.709Z,2.79
2022-12-27T23:53:47.723Z,2.77
2022-12-27T23:56:16.188Z,2.75
2022-12-27T23:58:44.176Z,2.69
